createdAt,value
2019-02-05T00:02:35.644Z,4.37
2019-02-05T00:08:30.635Z,4.16
2019-02-05T00:14:25.648Z,4.6
2019-02-05T00:20:20.694Z,4.92
2019-02-05T00:26:15.638Z,4.42
2019-02-05T00:32:10.636Z,4.66
2019-02-05T00:38:05.643Z,3.59
2019-02-05T00:44:00.675Z,4.61
2019-02-05T00:49:55.701Z,4.47
2019-02-05T00:55:50.646Z,3.81
2019-02-05T01:01:45.747Z,3.95
2019-02-05T01:07:40.671Z,3.9
2019-02-05T01:13:35.644Z,3.47
2019-02-05T01:19:30.657Z,3.37
2019-02-05T01:25:25.690Z,2.96
2019-02-05T01:31:20.714Z,2.35
2019-02-05T01:37:15.688Z,2.21
2019-02-05T01:43:10.699Z,3.46
2019-02-05T01:49:05.688Z,2.57
2019-02-05T01:55:00.697Z,2.76
2019-02-05T02:00:55.698Z,3.01
2019-02-05T02:06:50.697Z,3.01
2019-02-05T02:12:45.699Z,2.44
2019-02-05T02:18:40.743Z,2.63
2019-02-05T02:24:35.700Z,2.9
2019-02-05T02:30:30.704Z,2.74
2019-02-05T02:36:25.717Z,3.27
2019-02-05T02:42:20.741Z,3
2019-02-05T02:48:15.715Z,3.06
2019-02-05T02:54:10.755Z,3.04
2019-02-05T03:00:05.738Z,3
2019-02-05T03:06:00.745Z,3.07
2019-02-05T03:11:55.724Z,2.91
2019-02-05T03:17:50.757Z,3.43
2019-02-05T03:23:45.761Z,3.41
2019-02-05T03:29:40.739Z,3.3
2019-02-05T03:35:35.738Z,3.6
2019-02-05T03:41:30.782Z,3.76
2019-02-05T03:47:25.760Z,4.14
2019-02-05T03:53:20.760Z,3.5
2019-02-05T03:59:15.822Z,3.46
2019-02-05T04:05:10.768Z,3.67
2019-02-05T04:11:05.765Z,4.36
2019-02-05T04:17:00.742Z,4.45
2019-02-05T04:22:55.780Z,4.02
2019-02-05T04:28:50.761Z,4.18
2019-02-05T04:34:45.778Z,3.84
2019-02-05T04:40:40.790Z,4.68
2019-02-05T04:46:35.771Z,5.11
2019-02-05T04:52:30.775Z,3.96
2019-02-05T04:58:25.766Z,4.48
2019-02-05T05:04:20.782Z,4.49
2019-02-05T05:10:15.789Z,4.95
2019-02-05T05:16:10.860Z,4.87
2019-02-05T05:22:05.802Z,4.67
2019-02-05T05:28:09.618Z,5.38
2019-02-05T05:33:55.844Z,4.54
2019-02-05T05:39:50.897Z,4.67
2019-02-05T05:45:45.800Z,4.64
2019-02-05T05:51:40.811Z,4.38
2019-02-05T05:57:35.860Z,4.41
2019-02-05T06:03:30.857Z,4.65
2019-02-05T06:09:25.892Z,5.24
2019-02-05T06:15:20.841Z,4.26
2019-02-05T06:21:15.820Z,4.33
2019-02-05T06:27:10.826Z,5.88
2019-02-05T06:33:05.830Z,5.83
2019-02-05T06:39:00.838Z,6.47
2019-02-05T06:44:55.863Z,5.72
2019-02-05T06:50:50.880Z,5.84
2019-02-05T06:56:45.842Z,5.17
2019-02-05T07:02:40.870Z,5.39
2019-02-05T07:08:35.845Z,5.08
2019-02-05T07:14:30.858Z,4.84
2019-02-05T07:20:25.887Z,5.75
2019-02-05T07:26:20.876Z,5.12
2019-02-05T07:32:15.874Z,5.33
2019-02-05T07:38:10.882Z,6.33
2019-02-05T07:44:05.872Z,5.99
2019-02-05T07:50:00.934Z,7.31
2019-02-05T07:55:55.890Z,6.68
2019-02-05T08:01:50.889Z,6.9
2019-02-05T08:07:45.879Z,8.22
2019-02-05T08:13:40.909Z,7.74
2019-02-05T08:19:35.920Z,7.49
2019-02-05T08:25:30.881Z,6.46
2019-02-05T08:31:25.892Z,7.22
2019-02-05T08:37:20.920Z,6.42
2019-02-05T08:43:15.924Z,8.36
2019-02-05T08:49:10.902Z,10.75
2019-02-05T08:55:05.935Z,12.05
2019-02-05T09:01:00.913Z,9.3
2019-02-05T09:06:55.904Z,10.1
2019-02-05T09:12:50.942Z,10.69
2019-02-05T09:18:45.918Z,8.78
2019-02-05T09:24:40.930Z,9.07
2019-02-05T09:30:35.930Z,7.67
2019-02-05T09:36:30.939Z,7.39
2019-02-05T09:42:25.931Z,6.61
2019-02-05T09:48:20.971Z,4.61
2019-02-05T09:54:15.928Z,3.81
2019-02-05T10:00:10.972Z,4.56
2019-02-05T10:06:05.943Z,5.25
2019-02-05T10:12:00.970Z,5.2
2019-02-05T10:17:56.012Z,5.18
2019-02-05T10:23:50.985Z,4.27
2019-02-05T10:29:56.301Z,3.39
2019-02-05T10:35:41.021Z,3.62
2019-02-05T10:41:35.966Z,3.51
2019-02-05T10:47:30.970Z,4.31
2019-02-05T10:53:25.964Z,3.87
2019-02-05T10:59:20.972Z,3.66
2019-02-05T11:05:16.010Z,3.93
2019-02-05T11:11:11.040Z,3.45
2019-02-05T11:17:06.020Z,3.68
2019-02-05T11:23:01.001Z,3.32
2019-02-05T11:28:56.015Z,2.93
2019-02-05T11:34:51.009Z,3.08
2019-02-05T11:40:46.017Z,3.2
2019-02-05T11:46:40.995Z,2.44
2019-02-05T11:52:36.032Z,3.33
2019-02-05T11:58:31.103Z,2.72
2019-02-05T12:04:26.013Z,2.83
2019-02-05T12:10:21.018Z,2.96
2019-02-05T12:16:16.020Z,3
2019-02-05T12:22:11.026Z,3.18
2019-02-05T12:28:06.023Z,2.77
2019-02-05T12:34:01.073Z,2.96
2019-02-05T12:39:56.047Z,3.16
2019-02-05T12:45:51.032Z,2.77
2019-02-05T12:51:46.028Z,3.19
2019-02-05T12:57:41.054Z,3.57
2019-02-05T13:03:36.038Z,2.94
2019-02-05T13:09:31.063Z,3.39
2019-02-05T13:15:26.077Z,3.83
2019-02-05T13:21:21.065Z,3.34
2019-02-05T13:27:16.116Z,3.35
2019-02-05T13:33:11.083Z,3.27
2019-02-05T13:39:06.083Z,3
2019-02-05T13:45:01.070Z,5.48
2019-02-05T13:50:56.113Z,2.93
2019-02-05T13:56:51.073Z,2.44
2019-02-05T14:02:46.078Z,3.29
2019-02-05T14:08:41.082Z,3.37
2019-02-05T14:14:36.117Z,2.77
2019-02-05T14:20:31.162Z,2.69
2019-02-05T14:26:26.150Z,2.79
2019-02-05T14:32:21.108Z,2.58
2019-02-05T14:38:16.163Z,3.15
2019-02-05T14:44:11.129Z,2.4
2019-02-05T14:50:06.104Z,2.23
2019-02-05T14:56:01.102Z,2.33
2019-02-05T15:01:56.138Z,1.85
2019-02-05T15:07:51.125Z,3.29
2019-02-05T15:13:46.118Z,2.06
2019-02-05T15:19:41.179Z,2.05
2019-02-05T15:25:36.130Z,1.73
2019-02-05T15:31:31.151Z,1.97
2019-02-05T15:37:26.143Z,2.45
2019-02-05T15:43:21.143Z,2.13
2019-02-05T15:49:16.186Z,2.22
2019-02-05T15:55:11.148Z,2.4
2019-02-05T16:01:06.198Z,2.26
2019-02-05T16:07:01.197Z,2.87
2019-02-05T16:12:56.250Z,2.48
2019-02-05T16:18:53.240Z,5.11
2019-02-05T16:24:46.168Z,4.12
2019-02-05T16:30:41.185Z,2.7
2019-02-05T16:36:36.178Z,2.7
2019-02-05T16:42:31.213Z,2.92
2019-02-05T16:48:26.183Z,2.78
2019-02-05T16:54:21.312Z,2.94
2019-02-05T17:00:16.221Z,4.36
2019-02-05T17:06:11.203Z,5.71
2019-02-05T17:12:06.206Z,4.17
2019-02-05T17:18:01.216Z,2.71
2019-02-05T17:23:56.211Z,3.16
2019-02-05T17:29:51.242Z,3.97
2019-02-05T17:35:46.243Z,2.37
2019-02-05T17:41:41.226Z,3.99
2019-02-05T17:47:36.244Z,3.45
2019-02-05T17:53:31.217Z,3.89
2019-02-05T17:59:26.231Z,4.17
2019-02-05T18:05:21.251Z,4.94
2019-02-05T18:11:16.251Z,4.72
2019-02-05T18:17:11.237Z,9.13
2019-02-05T18:23:06.259Z,10.01
2019-02-05T18:29:01.265Z,9.94
2019-02-05T18:34:56.260Z,9.97
2019-02-05T18:40:51.287Z,9.87
2019-02-05T18:46:46.296Z,11.53
2019-02-05T18:52:41.280Z,9.64
2019-02-05T18:58:36.320Z,10.73
2019-02-05T19:04:31.281Z,10.11
2019-02-05T19:10:26.297Z,7.85
2019-02-05T19:16:21.268Z,8.57
2019-02-05T19:22:16.304Z,9.17
2019-02-05T19:28:11.262Z,10.83
2019-02-05T19:34:06.310Z,9.98
2019-02-05T19:40:01.315Z,13.43
2019-02-05T19:45:56.319Z,14.47
2019-02-05T19:51:51.301Z,12.5
2019-02-05T19:57:46.300Z,15.8
2019-02-05T20:03:41.307Z,14.87
2019-02-05T20:09:36.297Z,24.67
2019-02-05T20:15:31.320Z,11.37
2019-02-05T20:21:26.319Z,9.42
2019-02-05T20:27:21.303Z,9.19
2019-02-05T20:33:16.343Z,11.5
2019-02-05T20:39:11.418Z,12.04
2019-02-05T20:45:06.376Z,11.46
2019-02-05T20:51:01.433Z,9.81
2019-02-05T20:56:56.328Z,11.33
2019-02-05T21:02:51.346Z,11.4
2019-02-05T21:08:46.342Z,10.69
2019-02-05T21:14:41.344Z,11.94
2019-02-05T21:20:36.340Z,12.47
2019-02-05T21:26:31.339Z,13.11
2019-02-05T21:32:26.389Z,11.63
2019-02-05T21:38:21.371Z,11.52
2019-02-05T21:44:16.403Z,11.64
2019-02-05T21:50:11.358Z,11.69
2019-02-05T21:56:06.364Z,11.87
2019-02-05T22:02:01.413Z,12.2
2019-02-05T22:07:56.436Z,13.13
2019-02-05T22:13:51.366Z,13.53
2019-02-05T22:19:46.399Z,12.23
2019-02-05T22:25:41.375Z,13.14
2019-02-05T22:31:36.407Z,13.1
2019-02-05T22:37:31.414Z,11.86
2019-02-05T22:43:26.405Z,10.12
2019-02-05T22:49:21.391Z,10.68
2019-02-05T22:55:16.457Z,8.24
2019-02-05T23:01:11.454Z,4.19
2019-02-05T23:07:06.415Z,4.23
2019-02-05T23:13:01.412Z,4.49
2019-02-05T23:18:56.395Z,4.07
2019-02-05T23:24:51.475Z,4.3
2019-02-05T23:30:46.428Z,4.35
2019-02-05T23:36:41.437Z,4.88
2019-02-05T23:42:36.447Z,4.44
2019-02-05T23:48:31.421Z,4.21
2019-02-05T23:54:26.462Z,3.33
